Time;durP1;ratioP1;P1;durP2;ratioP2;P2;SDS_P1;SDS_P2;PMS_P1;PMS_P2;Temp;Humidity;BMP_temperature;BMP_pressure;BME280_temperature;BME280_humidity;BME280_pressure;Samples;Min_cycle;Max_cycle;Signal;HPM_P1;HPM_P2
2022/12/05 00:00:54;;;;;;;33.90;14.90;;;;;;;0.04;100.00;98944.70;103100;1288;22474;-74
2022/12/05 00:03:21;;;;;;;33.70;15.80;;;;;;;0.04;100.00;98943.44;103503;1289;138550;-74
2022/12/05 00:05:48;;;;;;;36.30;15.70;;;;;;;0.02;100.00;98939.00;103322;1304;22474;-74
2022/12/05 00:08:17;;;;;;;;;;;;;;;0.02;100.00;98939.34;103254;1310;23152;-74
2022/12/05 00:10:44;;;;;;;36.80;14.90;;;;;;;0.03;100.00;98942.86;103031;1310;124440;-74
2022/12/05 00:13:11;;;;;;;35.20;16.60;;;;;;;0.02;100.00;98939.59;103232;1307;22525;-74
2022/12/05 00:15:40;;;;;;;34.00;15.20;;;;;;;0.02;100.00;98937.94;103145;1289;140955;-74
2022/12/05 00:18:07;;;;;;;34.50;15.70;;;;;;;0.03;100.00;98933.39;103132;1286;22483;-74
2022/12/05 00:20:33;;;;;;;37.80;17.30;;;;;;;0.03;100.00;98929.52;103407;1294;27041;-74
2022/12/05 00:23:00;;;;;;;35.60;16.70;;;;;;;0.05;100.00;98931.46;102983;1296;138788;-74
2022/12/05 00:25:27;;;;;;;32.20;15.50;;;;;;;0.05;100.00;98935.09;103292;1295;22472;-74
2022/12/05 00:27:54;;;;;;;36.00;16.50;;;;;;;0.06;100.00;98935.20;103025;1294;138660;-74
2022/12/05 00:30:21;;;;;;;35.70;17.20;;;;;;;0.06;100.00;98931.98;103245;1303;24294;-74
2022/12/05 00:32:48;;;;;;;34.30;15.40;;;;;;;0.07;100.00;98927.30;103124;1304;22480;-74
2022/12/05 00:35:15;;;;;;;33.10;15.20;;;;;;;0.05;100.00;98929.40;103051;1288;138404;-74
2022/12/05 00:37:42;;;;;;;29.30;14.80;;;;;;;0.05;100.00;98926.72;103313;1297;22477;-74
2022/12/05 00:40:09;;;;;;;37.10;17.90;;;;;;;0.04;100.00;98918.46;103265;1297;139456;-74
2022/12/05 00:42:36;;;;;;;29.40;14.40;;;;;;;0.03;100.00;98914.82;103151;1286;22491;-74
2022/12/05 00:45:03;;;;;;;33.80;15.80;;;;;;;0.02;100.00;98913.20;103061;1311;22497;-74
2022/12/05 00:47:34;;;;;;;35.10;15.90;;;;;;;0.01;100.00;98912.91;102882;1303;140020;-74
2022/12/05 00:50:03;;;;;;;32.80;15.70;;;;;;;0.01;100.00;98912.61;103300;1288;24999;-74
2022/12/05 00:52:30;;;;;;;33.20;16.20;;;;;;;0.00;100.00;98910.83;103776;1285;138428;-74
2022/12/05 00:54:57;;;;;;;35.90;17.60;;;;;;;0.01;100.00;98907.35;103313;1298;25216;-74
2022/12/05 00:57:23;;;;;;;33.10;16.20;;;;;;;0.03;100.00;98903.20;103182;1310;138564;-74
2022/12/05 00:59:50;;;;;;;35.30;15.70;;;;;;;0.03;100.00;98902.84;103450;1289;22479;-74
2022/12/05 01:02:17;;;;;;;36.70;16.40;;;;;;;0.03;100.00;98905.41;103219;1288;23170;-74
2022/12/05 01:04:44;;;;;;;33.80;15.30;;;;;;;0.03;100.00;98905.08;103284;1284;138776;-74
2022/12/05 01:07:11;;;;;;;34.50;16.70;;;;;;;0.02;100.00;98902.76;103305;1303;23829;-74
2022/12/05 01:09:38;;;;;;;35.20;16.00;;;;;;;0.02;100.00;98901.95;103135;1295;138595;-74
2022/12/05 01:12:05;;;;;;;34.80;16.90;;;;;;;0.01;100.00;98901.13;103191;1291;22496;-75
2022/12/05 01:14:33;;;;;;;35.80;16.90;;;;;;;0.01;100.00;98891.65;103113;1285;23080;-74
2022/12/05 01:17:00;;;;;;;33.90;16.20;;;;;;;-0.00;100.00;98892.49;103212;1313;138360;-74
2022/12/05 01:19:30;;;;;;;38.80;18.00;;;;;;;-0.02;100.00;98889.30;103252;1286;24404;-74
2022/12/05 01:21:58;;;;;;;30.20;15.70;;;;;;;-0.02;100.00;98889.50;103195;1281;138814;-74
2022/12/05 01:24:27;;;;;;;35.70;17.20;;;;;;;-0.03;100.00;98889.54;100885;1297;3350535;-74
2022/12/05 01:26:55;;;;;;;37.40;17.20;;;;;;;-0.03;100.00;98881.34;103555;1277;21768;-75
2022/12/05 01:29:23;;;;;;;37.10;16.00;;;;;;;-0.02;100.00;98880.17;103283;1287;138923;-74
2022/12/05 01:31:51;;;;;;;35.00;16.40;;;;;;;-0.02;100.00;98875.52;103164;1301;23909;-74
2022/12/05 01:34:18;;;;;;;35.20;17.00;;;;;;;0.00;100.00;98872.48;103192;1286;138585;-74
2022/12/05 01:36:46;;;;;;;36.90;16.90;;;;;;;0.00;100.00;98867.14;103353;1310;22499;-74
2022/12/05 01:39:13;;;;;;;38.50;17.20;;;;;;;0.00;100.00;98868.73;103189;1302;22551;-74
2022/12/05 01:41:44;;;;;;;34.70;16.60;;;;;;;0.01;100.00;98872.91;103073;1297;25331;-74
2022/12/05 01:44:14;;;;;;;38.80;17.00;;;;;;;0.02;100.00;98874.45;103774;1294;22474;-74
2022/12/05 01:46:49;;;;;;;34.20;17.20;;;;;;;0.01;100.00;98861.84;103058;1310;138297;-74
2022/12/05 01:49:25;;;;;;;36.90;17.10;;;;;;;0.01;100.00;98851.83;103275;1281;23317;-74
2022/12/05 01:51:57;;;;;;;33.90;15.00;;;;;;;0.01;100.00;98855.85;103121;1294;138536;-74
2022/12/05 01:54:24;;;;;;;38.20;18.40;;;;;;;0.01;100.00;98862.77;103199;1279;22488;-74
2022/12/05 01:57:05;;;;;;;32.10;16.80;;;;;;;0.01;100.00;98867.55;103362;1309;23075;-74
2022/12/05 01:59:37;;;;;;;36.70;17.30;;;;;;;0.03;100.00;98873.02;103305;1294;138478;-74
2022/12/05 02:02:05;;;;;;;38.20;17.30;;;;;;;0.04;100.00;98875.67;103479;1312;25406;-74
2022/12/05 02:04:40;;;;;;;35.70;17.60;;;;;;;0.05;100.00;98869.66;103670;1296;138378;-74
2022/12/05 02:07:07;;;;;;;37.60;17.50;;;;;;;0.05;100.00;98872.85;103299;1304;22480;-74
2022/12/05 02:09:35;;;;;;;39.20;17.40;;;;;;;0.06;100.00;98876.30;103332;1289;139945;-75
2022/12/05 02:12:03;;;;;;;40.10;17.90;;;;;;;0.06;100.00;98873.29;103319;1286;22573;-74
2022/12/05 02:14:33;;;;;;;38.00;17.90;;;;;;;0.07;100.00;98879.08;103097;1310;22474;-75
2022/12/05 02:17:06;;;;;;;38.70;18.10;;;;;;;0.08;100.00;98874.85;103147;1311;138194;-74
2022/12/05 02:19:51;;;;;;;39.20;18.30;;;;;;;0.09;100.00;98873.34;103191;1300;22512;-74
2022/12/05 02:23:09;;;;;;;42.20;18.60;;;;;;;0.10;100.00;98873.35;102992;1302;138325;-75
2022/12/05 02:25:51;;;;;;;35.10;17.50;;;;;;;0.10;100.00;98865.44;103128;1303;24202;-74
2022/12/05 02:28:40;;;;;;;34.80;16.70;;;;;;;0.11;100.00;98867.00;103109;1310;138261;-74
2022/12/05 02:31:26;;;;;;;36.80;16.10;;;;;;;0.12;100.00;98864.54;103121;1294;22177;-75
2022/12/05 02:34:21;;;;;;;37.40;17.30;;;;;;;0.12;100.00;98855.06;103079;1286;139034;-75
2022/12/05 02:36:58;;;;;;;34.90;16.60;;;;;;;0.12;100.00;98855.44;103093;1288;25361;-74
2022/12/05 02:39:39;;;;;;;34.80;16.30;;;;;;;0.13;100.00;98854.42;103167;1286;138717;-74
2022/12/05 02:42:17;;;;;;;33.20;15.90;;;;;;;0.13;100.00;98851.05;103230;1286;25192;-74
2022/12/05 02:44:49;;;;;;;33.30;15.60;;;;;;;0.13;100.00;98853.36;103160;1285;25374;-75
2022/12/05 02:47:20;;;;;;;35.00;16.70;;;;;;;0.12;100.00;98851.16;103041;1302;138333;-74
2022/12/05 02:49:50;;;;;;;39.20;17.40;;;;;;;0.11;100.00;98852.52;103123;1304;22473;-74
2022/12/05 02:52:18;;;;;;;39.00;17.70;;;;;;;0.11;100.00;98857.38;102952;1304;138284;-74
2022/12/05 02:54:48;;;;;;;32.00;16.40;;;;;;;0.12;100.00;98859.25;103112;1303;22471;-74
2022/12/05 02:57:17;;;;;;;34.60;17.20;;;;;;;0.12;100.00;98858.14;103381;1284;22997;-74
2022/12/05 02:59:43;;;;;;;34.10;16.80;;;;;;;0.12;100.00;98854.58;103415;1310;22472;-74
2022/12/05 03:02:32;;;;;;;35.50;16.00;;;;;;;0.12;100.00;98855.63;103153;1298;22482;-74
2022/12/05 03:05:22;;;;;;;37.10;16.90;;;;;;;0.13;100.00;98850.91;103099;1310;138285;-74
2022/12/05 03:07:53;;;;;;;37.60;15.90;;;;;;;0.16;100.00;98858.58;103009;1286;25257;-74
2022/12/05 03:10:24;;;;;;;35.20;16.10;;;;;;;0.17;100.00;98859.71;103100;1298;138447;-74
2022/12/05 03:13:01;;;;;;;36.90;17.60;;;;;;;0.17;100.00;98861.09;103068;1311;22908;-74
2022/12/05 03:15:35;;;;;;;35.70;16.30;;;;;;;0.18;100.00;98861.61;103323;1288;140031;-74
2022/12/05 03:18:16;;;;;;;40.10;16.80;;;;;;;0.18;100.00;98865.81;103442;1296;22533;-74
2022/12/05 03:21:24;;;;;;;36.10;16.70;;;;;;;0.20;100.00;98864.28;103259;1289;25370;-75
2022/12/05 03:24:13;;;;;;;39.50;16.70;;;;;;;0.20;100.00;98871.40;103262;1279;23225;-74
2022/12/05 03:26:59;;;;;;;36.30;17.30;;;;;;;0.17;100.00;98863.23;103386;1296;22476;-74
2022/12/05 03:29:34;;;;;;;36.80;17.10;;;;;;;0.17;100.00;98858.24;103064;1306;138513;-74
2022/12/05 03:32:14;;;;;;;31.60;15.10;;;;;;;0.16;100.00;98844.79;103098;1289;22525;-75
2022/12/05 03:34:44;;;;;;;;;;;;;;;0.15;100.00;98845.29;102939;1313;140654;-74
2022/12/05 03:37:19;;;;;;;31.10;14.30;;;;;;;0.14;100.00;98859.66;103160;1300;24214;-74
2022/12/05 03:39:53;;;;;;;29.70;14.30;;;;;;;0.15;100.00;98865.71;103067;1297;138881;-75
2022/12/05 03:42:30;;;;;;;29.00;14.60;;;;;;;0.13;100.00;98855.30;103344;1302;24301;-74
2022/12/05 03:45:01;;;;;;;28.40;13.80;;;;;;;0.13;100.00;98851.27;103152;1297;23953;-74
2022/12/05 03:47:55;;;;;;;33.10;15.80;;;;;;;0.12;100.00;98847.23;102872;1298;138691;-74
2022/12/05 03:50:28;;;;;;;26.70;14.00;;;;;;;0.11;100.00;98839.13;103013;1285;26114;-75
2022/12/05 03:53:01;;;;;;;28.60;13.30;;;;;;;0.09;100.00;98834.02;103038;1301;138277;-74
2022/12/05 03:55:31;;;;;;;27.30;13.80;;;;;;;0.08;100.00;98836.84;103088;1302;22481;-74
2022/12/05 03:58:31;;;;;;;32.00;15.60;;;;;;;0.08;100.00;98852.90;103039;1291;138875;-74
2022/12/05 04:01:03;;;;;;;30.50;15.00;;;;;;;0.10;100.00;98868.77;102983;1303;25204;-74
2022/12/05 04:03:45;;;;;;;27.50;13.80;;;;;;;0.11;100.00;98873.45;102998;1309;138919;-74
2022/12/05 04:06:23;;;;;;;30.00;15.60;;;;;;;0.10;100.00;98879.94;105618;1310;25349;-75
2022/12/05 04:08:55;;;;;;;30.90;14.50;;;;;;;0.11;100.00;98885.20;105838;1290;22516;-75
2022/12/05 04:11:26;;;;;;;32.10;14.80;;;;;;;0.15;100.00;98892.48;103012;1291;138468;-75
2022/12/05 04:14:05;;;;;;;30.60;15.30;;;;;;;0.19;100.00;98890.83;103034;1287;24337;-75
2022/12/05 04:21:36;;;;;;;31.50;14.90;;;;;;;0.25;100.00;98891.58;103104;1310;23424;-75
2022/12/05 04:22:23;;;;;;;30.20;14.90;;;;;;;0.24;100.00;98886.80;103293;1310;138945;-74
2022/12/05 04:27:50;;;;;;;26.40;12.70;;;;;;;0.24;100.00;98878.10;102951;1302;138455;-75
2022/12/05 04:30:21;;;;;;;26.80;14.50;;;;;;;0.24;100.00;98874.35;103077;1301;22571;-74
2022/12/05 04:33:16;;;;;;;28.20;14.10;;;;;;;0.23;100.00;98869.10;103517;1303;22464;-74
2022/12/05 04:35:52;;;;;;;31.10;14.50;;;;;;;0.21;100.00;98869.63;103068;1298;138300;-75
2022/12/05 04:38:29;;;;;;;31.40;13.60;;;;;;;0.20;100.00;98873.71;103756;1296;25658;-75
2022/12/05 04:41:01;;;;;;;26.20;12.40;;;;;;;0.19;100.00;98876.99;102996;1310;138377;-75
2022/12/05 04:43:32;;;;;;;28.00;13.90;;;;;;;0.21;100.00;98879.16;103324;1301;22479;-75
2022/12/05 04:46:04;;;;;;;28.10;15.40;;;;;;;0.22;100.00;98868.90;103237;1300;139231;-75
2022/12/05 04:48:36;;;;;;;29.80;13.70;;;;;;;0.23;100.00;98872.54;103986;1285;22247;-75
2022/12/05 04:51:06;;;;;;;31.10;15.40;;;;;;;0.23;100.00;98870.89;103087;1286;22469;-75
2022/12/05 04:53:35;;;;;;;28.50;14.90;;;;;;;0.24;100.00;98852.78;103132;1292;138420;-74
2022/12/05 04:56:03;;;;;;;28.50;14.80;;;;;;;0.26;100.00;98862.50;103251;1286;22640;-75
2022/12/05 04:58:31;;;;;;;30.30;14.50;;;;;;;0.27;100.00;98857.98;103045;1303;138356;-74
2022/12/05 05:01:12;;;;;;;30.40;14.70;;;;;;;0.28;100.00;98846.92;103067;1310;24257;-74
2022/12/05 05:03:42;;;;;;;29.40;14.90;;;;;;;0.29;100.00;98852.34;102915;1304;138841;-74
2022/12/05 05:06:11;;;;;;;28.50;14.30;;;;;;;0.29;100.00;98846.69;103097;1304;25332;-75
2022/12/05 05:08:47;;;;;;;28.50;14.60;;;;;;;0.28;100.00;98847.13;103115;1288;26666;-75
2022/12/05 05:11:18;;;;;;;28.40;14.80;;;;;;;0.28;100.00;98845.85;103141;1295;139724;-75
2022/12/05 05:13:46;;;;;;;28.50;13.90;;;;;;;0.29;100.00;98848.77;103365;1305;22502;-75
2022/12/05 05:16:25;;;;;;;26.10;13.30;;;;;;;0.29;100.00;98845.75;102986;1286;138251;-75
2022/12/05 05:18:53;;;;;;;29.50;14.10;;;;;;;0.29;100.00;98845.74;103299;1301;24318;-75
2022/12/05 05:21:30;;;;;;;28.60;14.30;;;;;;;0.29;100.00;98840.34;103172;1305;22550;-75
2022/12/05 05:23:58;;;;;;;25.60;12.80;;;;;;;0.28;100.00;98832.83;103046;1288;22573;-75
2022/12/05 05:26:27;;;;;;;25.30;13.50;;;;;;;0.26;100.00;98820.98;102985;1292;25368;-74
2022/12/05 05:28:54;;;;;;;25.10;13.80;;;;;;;0.26;100.00;98820.95;103081;1286;138389;-75
2022/12/05 05:31:21;;;;;;;25.50;13.00;;;;;;;0.25;100.00;98819.30;103071;1294;25382;-74
2022/12/05 05:33:53;;;;;;;26.80;13.40;;;;;;;0.24;100.00;98824.91;102926;1310;138433;-75
2022/12/05 05:36:21;;;;;;;27.20;13.90;;;;;;;0.25;100.00;98832.80;103061;1294;24355;-74
2022/12/05 05:38:51;;;;;;;29.20;14.00;;;;;;;0.26;100.00;98828.28;103272;1310;22477;-75
2022/12/05 05:41:29;;;;;;;;;;;;;;;0.26;100.00;98819.98;103029;1295;138310;-74
2022/12/05 05:43:56;;;;;;;29.90;13.90;;;;;;;0.26;100.00;98820.35;103003;1295;23791;-75
2022/12/05 05:46:26;;;;;;;27.10;13.40;;;;;;;0.27;100.00;98825.33;103150;1298;138426;-74
2022/12/05 05:48:53;;;;;;;27.00;14.50;;;;;;;0.24;100.00;98816.13;103323;1310;22480;-75
2022/12/05 05:51:22;;;;;;;28.40;14.20;;;;;;;0.22;100.00;98810.77;103043;1288;22481;-74
2022/12/05 05:53:49;;;;;;;28.40;14.50;;;;;;;0.22;100.00;98816.01;103432;1301;138878;-75
2022/12/05 05:56:18;;;;;;;29.30;14.90;;;;;;;0.22;100.00;98821.42;103227;1287;25435;-74
2022/12/05 05:58:46;;;;;;;29.10;13.30;;;;;;;0.23;100.00;98830.20;103070;1286;138313;-74
2022/12/05 06:01:17;;;;;;;29.10;14.10;;;;;;;0.23;100.00;98831.40;103103;1300;22577;-74
2022/12/05 06:03:45;;;;;;;30.30;15.40;;;;;;;0.25;100.00;98840.29;103087;1288;138502;-75
2022/12/05 06:06:14;;;;;;;28.70;15.00;;;;;;;0.26;100.00;98836.48;103127;1310;22562;-74
2022/12/05 06:08:43;;;;;;;30.40;15.00;;;;;;;0.24;100.00;98839.06;103314;1285;22855;-74
2022/12/05 06:11:31;;;;;;;27.70;14.80;;;;;;;0.22;100.00;98836.19;102979;1305;138571;-74
2022/12/05 06:14:02;;;;;;;26.70;12.90;;;;;;;0.22;100.00;98836.74;103034;1285;22604;-75
2022/12/05 06:16:30;;;;;;;31.50;15.40;;;;;;;0.23;100.00;98837.02;102934;1289;138581;-75
2022/12/05 06:18:57;;;;;;;28.50;15.20;;;;;;;0.22;100.00;98828.89;103237;1308;22410;-75
2022/12/05 06:21:24;;;;;;;28.60;14.10;;;;;;;0.21;100.00;98824.57;103525;1303;22588;-74
2022/12/05 06:23:52;;;;;;;28.30;14.60;;;;;;;0.19;100.00;98832.73;103814;1301;138286;-74
2022/12/05 06:26:20;;;;;;;28.90;14.60;;;;;;;0.19;100.00;98844.56;103221;1301;22474;-75
2022/12/05 06:28:48;;;;;;;29.10;14.60;;;;;;;0.17;100.00;98835.25;103062;1305;138319;-75
2022/12/05 06:31:18;;;;;;;27.60;14.50;;;;;;;0.17;100.00;98835.12;103513;1286;22484;-74
2022/12/05 06:33:45;;;;;;;29.60;14.60;;;;;;;0.16;100.00;98825.05;103154;1310;138520;-75
2022/12/05 06:36:15;;;;;;;26.50;14.60;;;;;;;0.13;100.00;98830.66;103226;1294;22526;-74
2022/12/05 06:38:42;;;;;;;34.40;16.20;;;;;;;0.12;100.00;98838.16;103537;1289;22489;-75
2022/12/05 06:41:13;;;;;;;29.40;14.10;;;;;;;0.11;100.00;98840.95;103133;1291;138252;-74
2022/12/05 06:43:40;;;;;;;31.30;15.50;;;;;;;0.11;100.00;98851.61;104387;1287;25367;-74
2022/12/05 06:46:10;;;;;;;30.90;15.60;;;;;;;0.12;100.00;98856.91;103918;1279;138479;-74
2022/12/05 06:48:37;;;;;;;29.70;15.50;;;;;;;0.12;100.00;98857.58;103685;1286;24250;-75
2022/12/05 06:51:07;;;;;;;35.40;16.70;;;;;;;0.13;100.00;98857.10;103882;1301;24224;-74
2022/12/05 06:53:34;;;;;;;31.20;15.70;;;;;;;0.14;100.00;98856.16;104050;1287;139298;-75
2022/12/05 06:56:06;;;;;;;36.80;18.50;;;;;;;0.17;100.00;98852.73;103569;1286;22938;-74
2022/12/05 06:58:33;;;;;;;34.80;17.90;;;;;;;0.25;100.00;98851.05;104306;1291;140239;-75
2022/12/05 07:03:49;;;;;;;34.40;16.90;;;;;;;0.30;100.00;98846.59;103112;1288;138463;-75
2022/12/05 07:06:16;;;;;;;31.50;17.00;;;;;;;0.32;100.00;98852.04;103008;1301;22448;-76
2022/12/05 07:08:43;;;;;;;33.00;16.90;;;;;;;0.37;100.00;98847.31;104697;1285;22380;-75
2022/12/05 07:11:10;;;;;;;37.80;18.60;;;;;;;0.43;100.00;98843.64;103851;1295;138394;-75
2022/12/05 07:13:38;;;;;;;33.20;16.50;;;;;;;0.47;100.00;98842.88;103674;1301;22474;-75
2022/12/05 07:16:06;;;;;;;35.10;17.70;;;;;;;0.50;100.00;98849.16;102973;1298;138569;-75
2022/12/05 07:18:34;;;;;;;35.50;17.30;;;;;;;0.51;100.00;98847.80;103051;1294;22479;-75
2022/12/05 07:21:06;;;;;;;33.30;17.00;;;;;;;0.52;100.00;98842.47;103502;1285;22688;-75
2022/12/05 07:23:33;;;;;;;32.80;16.50;;;;;;;0.54;100.00;98842.49;102960;1310;138460;-75
2022/12/05 07:26:08;;;;;;;37.20;16.30;;;;;;;0.56;100.00;98844.56;103418;1286;22479;-75
2022/12/05 07:28:35;;;;;;;38.40;17.50;;;;;;;0.58;100.00;98848.34;103275;1306;138495;-75
2022/12/05 07:31:04;;;;;;;37.30;17.00;;;;;;;0.58;100.00;98841.97;103091;1302;25195;-75
2022/12/05 07:33:31;;;;;;;31.80;16.70;;;;;;;0.60;100.00;98837.38;103222;1302;22496;-75
2022/12/05 07:36:00;;;;;;;33.90;16.10;;;;;;;0.60;100.00;98833.93;103206;1291;138053;-75
2022/12/05 07:38:28;;;;;;;36.50;16.10;;;;;;;0.62;100.00;98840.70;103354;1286;22558;-74
2022/12/05 07:40:55;;;;;;;32.90;16.40;;;;;;;0.64;100.00;98840.35;103302;1285;139363;-75
2022/12/05 07:43:22;;;;;;;32.00;15.80;;;;;;;0.66;100.00;98843.64;103270;1301;24226;-75
2022/12/05 07:45:49;;;;;;;33.70;16.00;;;;;;;0.69;100.00;98843.16;103043;1298;138463;-74
2022/12/05 07:48:16;;;;;;;31.60;16.30;;;;;;;0.71;100.00;98839.42;103210;1286;22560;-75
2022/12/05 07:50:43;;;;;;;36.60;18.10;;;;;;;0.75;100.00;98831.94;103142;1286;22550;-75
2022/12/05 07:53:10;;;;;;;28.60;13.40;;;;;;;0.79;100.00;98835.45;103028;1311;138204;-75
2022/12/05 07:55:37;;;;;;;30.80;15.20;;;;;;;0.81;100.00;98832.36;103115;1285;25448;-75
2022/12/05 07:58:05;;;;;;;31.60;15.10;;;;;;;0.82;100.00;98835.94;103097;1310;138435;-75
2022/12/05 08:00:32;;;;;;;33.40;15.70;;;;;;;0.83;100.00;98840.33;103133;1301;22915;-75
2022/12/05 08:03:02;;;;;;;31.90;16.70;;;;;;;0.83;100.00;98838.81;103129;1292;22608;-75
2022/12/05 08:05:29;;;;;;;32.60;16.00;;;;;;;0.85;100.00;98839.92;103101;1311;138267;-75
2022/12/05 08:07:56;;;;;;;30.40;15.40;;;;;;;0.85;100.00;98838.52;103270;1312;22598;-75
2022/12/05 08:10:23;;;;;;;32.60;17.60;;;;;;;0.86;100.00;98836.40;103200;1291;138893;-75
2022/12/05 08:12:50;;;;;;;34.70;17.20;;;;;;;0.88;100.00;98832.91;103341;1301;22468;-75
2022/12/05 08:15:17;;;;;;;33.90;17.00;;;;;;;0.94;100.00;98832.45;103624;1294;22589;-75
2022/12/05 08:17:44;;;;;;;34.50;16.70;;;;;;;0.98;100.00;98832.56;103190;1285;140435;-74
2022/12/05 08:20:11;;;;;;;30.20;15.60;;;;;;;1.02;100.00;98836.60;103054;1300;24467;-75
2022/12/05 08:22:38;;;;;;;31.10;16.50;;;;;;;1.06;100.00;98840.92;103107;1294;138770;-75
2022/12/05 08:25:06;;;;;;;29.90;15.80;;;;;;;1.10;100.00;98842.04;103174;1308;26706;-75
2022/12/05 08:27:33;;;;;;;30.20;15.70;;;;;;;1.16;100.00;98843.79;103330;1310;24243;-75
2022/12/05 08:29:59;;;;;;;31.20;16.70;;;;;;;1.21;100.00;98845.67;103122;1285;138614;-75
2022/12/05 08:32:26;;;;;;;33.40;15.30;;;;;;;1.25;100.00;98847.90;103226;1289;24461;-75
2022/12/05 08:34:53;;;;;;;29.40;15.50;;;;;;;1.26;100.00;98848.95;103617;1288;138467;-75
2022/12/05 08:37:20;;;;;;;32.10;17.10;;;;;;;1.26;100.00;98851.71;103083;1287;25264;-75
2022/12/05 08:39:47;;;;;;;35.20;17.70;;;;;;;1.29;100.00;98853.38;103136;1293;138431;-75
2022/12/05 08:42:14;;;;;;;32.50;16.40;;;;;;;1.32;100.00;98849.06;103154;1278;22880;-75
2022/12/05 08:44:41;;;;;;;29.90;16.20;;;;;;;1.35;100.00;98841.87;103058;1301;25417;-75
2022/12/05 08:47:08;;;;;;;31.70;16.60;;;;;;;1.39;100.00;98835.74;103086;1295;138319;-75
2022/12/05 08:49:35;;;;;;;35.90;18.40;;;;;;;1.43;100.00;98836.54;103159;1294;22507;-75
2022/12/05 08:52:02;;;;;;;30.90;16.00;;;;;;;1.48;100.00;98841.86;102979;1304;139038;-75
2022/12/05 08:54:29;;;;;;;30.10;14.80;;;;;;;1.54;100.00;98844.21;103538;1292;22464;-75
2022/12/05 08:56:56;;;;;;;30.60;16.50;;;;;;;1.58;100.00;98852.67;103415;1308;22616;-75
2022/12/05 08:59:23;;;;;;;28.80;16.00;;;;;;;1.64;100.00;98854.11;103704;1296;138311;-75
2022/12/05 09:01:50;;;;;;;32.50;16.80;;;;;;;1.66;100.00;98851.40;102992;1288;25371;-75
2022/12/05 09:04:17;;;;;;;33.00;16.00;;;;;;;1.69;100.00;98856.27;103027;1310;138512;-75
2022/12/05 09:06:44;;;;;;;31.60;16.50;;;;;;;1.71;99.99;98853.13;103124;1302;22960;-75
2022/12/05 09:09:12;;;;;;;33.70;17.20;;;;;;;1.75;99.99;98849.11;103857;1295;23495;-75
2022/12/05 09:11:45;;;;;;;34.80;17.90;;;;;;;1.81;100.00;98839.80;103861;1294;138353;-75
2022/12/05 09:14:12;;;;;;;29.40;16.00;;;;;;;1.87;100.00;98839.41;103514;1295;23013;-75
2022/12/05 09:16:40;;;;;;;37.70;18.20;;;;;;;1.90;99.80;98839.79;103243;1295;139206;-75
2022/12/05 09:19:16;;;;;;;32.70;17.30;;;;;;;1.94;99.91;98832.75;103746;1286;22516;-75
2022/12/05 09:21:43;;;;;;;31.80;16.40;;;;;;;1.97;99.81;98829.16;103279;1286;138667;-75
2022/12/05 09:24:12;;;;;;;33.30;17.30;;;;;;;1.99;99.43;98826.42;103275;1305;22495;-75
2022/12/05 09:26:40;;;;;;;37.50;17.80;;;;;;;2.00;99.35;98818.66;103490;1301;22485;-75
2022/12/05 09:29:08;;;;;;;33.90;17.50;;;;;;;2.03;99.15;98821.69;103239;1292;138588;-75
2022/12/05 09:31:35;;;;;;;37.90;20.00;;;;;;;2.06;99.20;98824.15;103366;1287;22477;-76
2022/12/05 09:34:02;;;;;;;37.70;18.80;;;;;;;2.12;99.27;98827.09;103028;1307;140694;-75
2022/12/05 09:36:31;;;;;;;35.00;18.70;;;;;;;2.17;99.31;98822.16;103155;1308;25702;-75
2022/12/05 09:39:04;;;;;;;39.50;20.40;;;;;;;2.24;99.32;98821.38;103317;1299;24890;-75
2022/12/05 09:42:04;;;;;;;36.30;19.20;;;;;;;2.34;99.57;98817.32;103622;1291;138177;-75
2022/12/05 09:44:56;;;;;;;38.60;19.50;;;;;;;2.44;99.37;98814.86;103378;1299;22478;-75
2022/12/05 09:47:26;;;;;;;39.30;19.80;;;;;;;2.48;98.81;98804.49;102986;1308;139136;-75
2022/12/05 09:50:23;;;;;;;39.00;19.60;;;;;;;2.52;98.80;98795.27;102930;1294;22490;-75
2022/12/05 09:53:03;;;;;;;36.60;19.20;;;;;;;2.58;98.51;98803.16;103226;1289;138009;-75
2022/12/05 09:55:40;;;;;;;36.40;19.20;;;;;;;2.65;98.75;98800.48;103450;1298;22914;-75
2022/12/05 09:58:33;;;;;;;36.30;19.30;;;;;;;2.73;98.89;98801.05;103258;1295;138441;-75
2022/12/05 10:01:24;;;;;;;39.00;20.20;;;;;;;2.83;98.72;98799.20;103063;1310;24247;-76
2022/12/05 10:04:16;;;;;;;40.40;21.20;;;;;;;2.89;98.32;98796.00;103042;1310;138686;-75
2022/12/05 10:07:06;;;;;;;40.40;20.60;;;;;;;2.93;97.93;98787.61;103063;1305;22601;-75
2022/12/05 10:09:51;;;;;;;44.00;21.90;;;;;;;2.94;97.39;98789.59;103360;1312;22881;-75
2022/12/05 10:12:37;;;;;;;43.60;22.40;;;;;;;2.95;97.00;98789.85;103218;1313;22497;-75
2022/12/05 10:15:26;;;;;;;44.30;23.00;;;;;;;3.00;97.11;98787.15;103831;1295;24651;-75
2022/12/05 10:18:00;;;;;;;42.60;23.30;;;;;;;3.04;96.91;98783.61;105221;1295;138684;-76
2022/12/05 10:20:34;;;;;;;41.00;22.00;;;;;;;3.05;96.57;98776.09;104584;1291;22631;-76
2022/12/05 10:23:22;;;;;;;41.70;21.60;;;;;;;3.07;96.32;98775.90;105242;1287;138624;-76
2022/12/05 10:25:55;;;;;;;42.80;23.30;;;;;;;3.09;96.02;98781.39;104496;1310;23387;-76
2022/12/05 10:28:41;;;;;;;43.60;23.30;;;;;;;3.14;96.48;98788.48;103998;1310;139253;-75
2022/12/05 10:31:14;;;;;;;44.20;22.70;;;;;;;3.23;96.75;98782.71;105168;1302;22480;-76
2022/12/05 10:33:48;;;;;;;41.70;21.90;;;;;;;3.33;96.96;98772.02;104653;1284;22650;-75
2022/12/05 10:36:15;;;;;;;41.30;22.90;;;;;;;3.42;96.38;98765.32;104241;1303;23226;-75
2022/12/05 10:38:43;;;;;;;40.40;22.40;;;;;;;3.50;96.22;98755.83;103537;1286;23260;-75
2022/12/05 10:41:13;;;;;;;44.60;23.90;;;;;;;3.58;95.99;98752.48;103853;1286;138080;-75
2022/12/05 10:43:43;;;;;;;43.30;23.20;;;;;;;3.68;96.01;98759.36;103881;1285;22509;-76
2022/12/05 10:46:12;;;;;;;45.30;24.80;;;;;;;3.78;96.17;98747.39;104805;1286;140095;-76
2022/12/05 10:48:40;;;;;;;;;;;;;;;3.92;96.18;98745.18;104810;1301;25344;-75
2022/12/05 10:51:13;;;;;;;37.30;22.90;;;;;;;3.97;95.71;98735.94;104385;1282;22289;-75
2022/12/05 10:53:44;;;;;;;40.20;23.90;;;;;;;3.98;95.32;98741.46;105244;1303;139991;-76
2022/12/05 10:56:38;;;;;;;41.40;22.20;;;;;;;4.03;95.41;98743.61;105211;1295;22984;-75
2022/12/05 10:59:10;;;;;;;39.00;22.20;;;;;;;4.07;94.75;98743.85;103826;1303;138135;-75
2022/12/05 11:01:44;;;;;;;38.30;21.00;;;;;;;4.14;94.72;98741.88;105476;1301;24630;-76
2022/12/05 11:04:42;;;;;;;36.40;21.80;;;;;;;4.21;94.36;98737.35;105683;1285;138786;-75
2022/12/05 11:07:25;;;;;;;35.10;20.20;;;;;;;4.29;94.39;98731.86;104120;1310;23075;-75
2022/12/05 11:09:53;;;;;;;37.10;21.00;;;;;;;4.36;94.43;98729.69;104311;1295;138305;-76
2022/12/05 11:12:22;;;;;;;32.30;19.80;;;;;;;4.42;94.24;98722.30;104344;1294;22587;-75
2022/12/05 11:15:20;;;;;;;32.70;18.90;;;;;;;4.47;94.16;98710.80;105426;1285;22898;-76
2022/12/05 11:17:48;;;;;;;29.50;18.10;;;;;;;4.54;93.90;98713.70;104847;1286;140328;-75
2022/12/05 11:20:18;;;;;;;33.40;20.00;;;;;;;4.63;94.34;98717.56;104447;1285;22466;-75
2022/12/05 11:22:48;;;;;;;30.00;18.10;;;;;;;4.73;94.24;98720.55;103980;1286;138101;-75
2022/12/05 11:25:27;;;;;;;33.20;19.30;;;;;;;4.82;94.12;98716.94;103558;1295;25501;-75
2022/12/05 11:27:58;;;;;;;32.40;18.80;;;;;;;4.90;94.14;98717.96;103355;1286;138434;-75
2022/12/05 11:30:27;;;;;;;30.00;18.50;;;;;;;4.98;94.03;98712.06;103513;1288;23610;-75
2022/12/05 11:33:21;;;;;;;28.70;17.80;;;;;;;5.05;93.70;98712.02;103448;1300;22487;-75
2022/12/05 11:35:50;;;;;;;28.90;17.00;;;;;;;5.11;93.35;98705.49;103242;1302;138163;-75
2022/12/05 11:38:26;;;;;;;26.80;16.60;;;;;;;5.15;93.30;98704.09;103523;1289;23371;-74
2022/12/05 11:41:17;;;;;;;26.40;16.10;;;;;;;5.22;93.50;98706.26;103551;1292;138576;-74